Time;durP1;ratioP1;P1;durP2;ratioP2;P2;SDS_P1;SDS_P2;PMS_P1;PMS_P2;Temp;Humidity;BMP_temperature;BMP_pressure;BME280_temperature;BME280_humidity;BME280_pressure;Samples;Min_cycle;Max_cycle;Signal;HPM_P1;HPM_P2
2022/03/03 00:00:49;;;;;;;1999.90;999.90;;;4.60;99.90;;;;;;5074182;28;20725;-75
2022/03/03 00:03:15;;;;;;;1999.90;999.90;;;4.60;99.90;;;;;;5073724;28;20187;-75
2022/03/03 00:05:40;;;;;;;1999.90;999.90;;;4.50;99.90;;;;;;5074061;28;20167;-75
2022/03/03 00:08:06;;;;;;;1999.90;999.90;;;4.50;99.90;;;;;;5074394;28;20678;-75
2022/03/03 00:10:32;;;;;;;1999.90;999.90;;;4.50;99.90;;;;;;5074093;28;20208;-75
2022/03/03 00:12:58;;;;;;;1999.90;999.90;;;4.50;99.90;;;;;;5073909;28;20822;-75
2022/03/03 00:15:24;;;;;;;1999.90;999.90;;;4.50;99.90;;;;;;5072530;28;20422;-75
2022/03/03 00:17:49;;;;;;;1999.90;999.90;;;4.50;99.90;;;;;;5074075;28;20624;-75
2022/03/03 00:20:15;;;;;;;1999.90;999.90;;;4.40;99.90;;;;;;5074024;28;20402;-75
2022/03/03 00:22:41;;;;;;;1999.90;999.90;;;4.40;99.90;;;;;;5073951;28;20191;-75
2022/03/03 00:25:07;;;;;;;1999.90;999.90;;;4.40;99.90;;;;;;5073554;28;20448;-75
2022/03/03 00:27:34;;;;;;;1999.90;999.90;;;4.30;99.90;;;;;;5073693;28;20198;-75
2022/03/03 00:29:59;;;;;;;1999.90;999.90;;;4.40;99.90;;;;;;5077266;28;20409;-76
2022/03/03 00:32:25;;;;;;;1999.90;999.90;;;4.30;99.90;;;;;;5078577;28;20549;-76
2022/03/03 00:34:51;;;;;;;1999.90;999.90;;;4.30;99.90;;;;;;5078824;28;20611;-75
2022/03/03 00:37:17;;;;;;;1999.90;999.90;;;4.30;99.90;;;;;;5078776;28;20167;-75
2022/03/03 00:39:43;;;;;;;1999.90;999.90;;;4.30;99.90;;;;;;5078607;28;20259;-75
2022/03/03 00:42:09;;;;;;;1999.90;999.90;;;4.30;99.90;;;;;;5078099;28;20845;-75
2022/03/03 00:44:34;;;;;;;1999.90;999.90;;;4.30;99.90;;;;;;5078319;28;20448;-76
2022/03/03 00:47:00;;;;;;;1999.90;999.90;;;4.20;99.90;;;;;;5075850;28;20171;-75
2022/03/03 00:49:26;;;;;;;1999.90;999.90;;;4.20;99.90;;;;;;5076194;28;20175;-75
2022/03/03 00:51:51;;;;;;;1999.90;999.90;;;4.20;99.90;;;;;;5076042;28;20293;-75
2022/03/03 00:54:17;;;;;;;1999.90;999.90;;;4.20;99.90;;;;;;5075265;28;20170;-75
2022/03/03 00:56:42;;;;;;;1999.90;999.90;;;4.20;99.90;;;;;;5074096;28;20167;-76
2022/03/03 00:59:10;;;;;;;1999.90;999.90;;;4.20;99.90;;;;;;5075143;28;20218;-76
2022/03/03 01:01:38;;;;;;;1999.90;999.90;;;4.10;99.90;;;;;;5075046;28;20300;-75
2022/03/03 01:04:04;;;;;;;1999.90;999.90;;;4.20;99.90;;;;;;5074085;28;20942;-76
2022/03/03 01:06:30;;;;;;;1999.90;999.90;;;4.10;99.90;;;;;;5075695;28;20417;-76
2022/03/03 01:08:56;;;;;;;1999.90;999.90;;;4.10;99.90;;;;;;5075087;28;20181;-75
2022/03/03 01:11:21;;;;;;;1999.90;999.90;;;4.10;99.90;;;;;;5075489;28;20644;-75
2022/03/03 01:13:47;;;;;;;1999.90;999.90;;;4.00;99.90;;;;;;5075085;28;20252;-76
2022/03/03 01:16:13;;;;;;;1999.90;999.90;;;3.90;99.90;;;;;;5073113;28;20224;-75
2022/03/03 01:18:38;;;;;;;1999.90;999.90;;;3.90;99.90;;;;;;5072841;28;20178;-75
2022/03/03 01:21:04;;;;;;;1999.90;999.90;;;3.90;99.90;;;;;;5072760;28;20240;-75
2022/03/03 01:23:30;;;;;;;1999.90;999.90;;;3.80;99.90;;;;;;5072681;28;20183;-75
2022/03/03 01:25:55;;;;;;;1999.90;999.90;;;3.90;99.90;;;;;;5072437;28;20167;-75
2022/03/03 01:28:21;;;;;;;1999.90;999.90;;;3.80;99.90;;;;;;5072695;28;20444;-75
2022/03/03 01:30:46;;;;;;;1999.90;999.90;;;3.80;99.90;;;;;;5072556;28;20190;-75
2022/03/03 01:33:12;;;;;;;1999.90;999.90;;;3.80;99.90;;;;;;5072711;28;20683;-75
2022/03/03 01:35:39;;;;;;;1999.90;999.90;;;3.70;99.90;;;;;;5072285;28;20182;-75
2022/03/03 01:38:04;;;;;;;1999.90;999.90;;;3.70;99.90;;;;;;5072507;28;20180;-75
2022/03/03 01:40:30;;;;;;;1999.90;999.90;;;3.70;99.90;;;;;;5072485;28;20401;-75
2022/03/03 01:42:56;;;;;;;1999.90;999.90;;;3.60;99.90;;;;;;5072288;28;20186;-75
2022/03/03 01:45:22;;;;;;;1999.90;999.90;;;3.70;99.90;;;;;;5072043;28;20167;-75
2022/03/03 01:47:48;;;;;;;1999.90;999.90;;;3.70;99.90;;;;;;5072268;28;20499;-75
2022/03/03 01:50:14;;;;;;;1999.90;999.90;;;3.60;99.90;;;;;;5072401;28;20174;-75
2022/03/03 01:52:39;;;;;;;1999.90;999.90;;;3.60;99.90;;;;;;5072171;28;20209;-75
2022/03/03 01:55:06;;;;;;;1999.90;999.90;;;3.50;99.90;;;;;;5071965;28;20413;-75
2022/03/03 01:57:32;;;;;;;1999.90;999.90;;;3.40;99.90;;;;;;5072199;28;20163;-75
2022/03/03 01:59:58;;;;;;;1999.90;999.90;;;3.30;99.90;;;;;;5073881;28;20844;-76
2022/03/03 02:02:27;;;;;;;1999.90;999.90;;;3.30;99.90;;;;;;5074710;28;20453;-76
2022/03/03 02:04:52;;;;;;;1999.90;999.90;;;3.30;99.90;;;;;;5073409;28;20425;-76
2022/03/03 02:07:18;;;;;;;1999.90;999.90;;;3.30;99.90;;;;;;5075005;28;20409;-75
2022/03/03 02:09:44;;;;;;;1999.90;999.90;;;3.30;99.90;;;;;;5074836;28;20167;-76
2022/03/03 02:12:10;;;;;;;1999.90;999.90;;;3.20;99.90;;;;;;5074497;28;20256;-76
2022/03/03 02:14:46;;;;;;;1999.90;999.90;;;3.20;99.90;;;;;;5074109;28;20320;-75
2022/03/03 02:17:12;;;;;;;1999.90;999.90;;;3.10;99.90;;;;;;5073840;28;20446;-75
2022/03/03 02:19:38;;;;;;;1999.90;999.90;;;3.10;99.90;;;;;;5074095;28;20262;-75
2022/03/03 02:22:04;;;;;;;1999.90;999.90;;;3.10;99.90;;;;;;5072461;28;20194;-76
2022/03/03 02:24:29;;;;;;;1999.90;999.90;;;3.10;99.90;;;;;;5073604;28;20504;-75
2022/03/03 02:26:57;;;;;;;1999.90;999.90;;;3.20;99.90;;;;;;5073708;28;20259;-75
2022/03/03 02:29:23;;;;;;;1999.90;999.90;;;3.20;99.90;;;;;;5073793;28;20167;-75
2022/03/03 02:31:49;;;;;;;1999.90;999.90;;;3.10;99.90;;;;;;5072977;28;20459;-75
2022/03/03 02:34:14;;;;;;;1999.90;999.90;;;3.10;99.90;;;;;;5073717;28;20178;-75
2022/03/03 02:36:40;;;;;;;1999.90;999.90;;;3.10;99.90;;;;;;5073655;28;20398;-76
2022/03/03 02:39:06;;;;;;;1999.90;999.90;;;3.00;99.90;;;;;;5070738;28;20698;-75
2022/03/03 02:41:33;;;;;;;1999.90;999.90;;;3.10;99.90;;;;;;5071692;28;20163;-75
2022/03/03 02:44:01;;;;;;;1999.90;999.90;;;3.00;99.90;;;;;;5071389;28;20511;-75
2022/03/03 02:46:26;;;;;;;1999.90;999.90;;;2.80;99.90;;;;;;5073064;28;20216;-75
2022/03/03 02:48:52;;;;;;;1999.90;999.90;;;2.70;99.90;;;;;;5073557;28;20179;-76
2022/03/03 02:51:18;;;;;;;1999.90;999.90;;;2.60;99.90;;;;;;5072978;28;20412;-74
2022/03/03 02:53:44;;;;;;;1999.90;999.90;;;2.60;99.90;;;;;;5072898;28;20186;-75
2022/03/03 02:56:10;;;;;;;1999.90;999.90;;;2.50;99.90;;;;;;5073111;28;20489;-76
2022/03/03 02:58:35;;;;;;;1999.90;999.90;;;2.50;99.90;;;;;;5073827;28;20408;-75
2022/03/03 03:01:03;;;;;;;1999.90;999.90;;;2.40;99.90;;;;;;5073371;28;20182;-75
2022/03/03 03:03:29;;;;;;;1999.90;999.90;;;2.40;99.90;;;;;;5073738;28;20429;-75
2022/03/03 03:05:55;;;;;;;1999.90;999.90;;;2.50;99.90;;;;;;5072102;28;20210;-76
2022/03/03 03:08:21;;;;;;;1999.90;999.90;;;2.50;99.90;;;;;;5073853;28;20175;-75
2022/03/03 03:10:46;;;;;;;1999.90;999.90;;;2.40;99.90;;;;;;5073323;28;20155;-76
2022/03/03 03:13:14;;;;;;;1999.90;999.90;;;2.40;99.90;;;;;;5073007;28;20206;-75
2022/03/03 03:15:40;;;;;;;1999.90;999.90;;;2.50;99.90;;;;;;5071260;28;20166;-76
2022/03/03 03:18:17;;;;;;;1999.90;999.90;;;2.40;99.90;;;;;;5072854;28;20167;-76
2022/03/03 03:20:49;;;;;;;1999.90;999.90;;;2.40;99.90;;;;;;5072110;28;20401;-75
2022/03/03 03:23:17;;;;;;;1999.90;999.90;;;2.30;99.90;;;;;;5071363;28;20183;-75
2022/03/03 03:25:46;;;;;;;1999.90;999.90;;;2.20;99.90;;;;;;5071228;28;20656;-75
2022/03/03 03:28:13;;;;;;;1999.90;999.90;;;2.20;99.90;;;;;;5071333;28;20171;-74
2022/03/03 03:30:39;;;;;;;1999.90;999.90;;;2.10;99.90;;;;;;5071353;28;20178;-76
2022/03/03 03:33:05;;;;;;;1999.90;999.90;;;2.10;99.90;;;;;;5071056;28;20207;-75
2022/03/03 03:35:30;;;;;;;1999.90;999.90;;;2.00;99.90;;;;;;5070925;28;20171;-75
2022/03/03 03:38:00;;;;;;;1999.90;999.90;;;2.00;99.90;;;;;;5073936;28;20167;-75
2022/03/03 03:40:25;;;;;;;1999.90;999.90;;;2.10;99.90;;;;;;5074754;28;20226;-75
2022/03/03 03:42:51;;;;;;;1999.90;999.90;;;2.10;99.90;;;;;;5074615;28;20617;-75
2022/03/03 03:45:17;;;;;;;1999.90;999.90;;;2.10;99.90;;;;;;5073179;28;20682;-74
2022/03/03 03:47:43;;;;;;;1999.90;999.90;;;2.10;99.90;;;;;;5074665;28;20182;-75
2022/03/03 03:50:11;;;;;;;1999.90;999.90;;;2.20;99.90;;;;;;5074494;28;20173;-75
2022/03/03 03:52:38;;;;;;;1999.90;999.90;;;2.10;99.90;;;;;;5074567;28;20540;-75
2022/03/03 03:55:06;;;;;;;1999.90;999.90;;;2.10;99.90;;;;;;5074261;28;20177;-75
2022/03/03 03:57:32;;;;;;;1999.90;999.90;;;2.10;99.90;;;;;;5074275;28;20171;-75
2022/03/03 04:00:00;;;;;;;1999.90;999.90;;;2.10;99.90;;;;;;5074423;28;20167;-75
2022/03/03 04:02:26;;;;;;;1999.90;999.90;;;2.10;99.90;;;;;;5074184;28;20568;-75
2022/03/03 04:04:52;;;;;;;1999.90;999.90;;;2.00;99.90;;;;;;5074051;28;20307;-75
2022/03/03 04:07:18;;;;;;;1999.90;999.90;;;1.90;99.90;;;;;;5074258;28;20171;-75
2022/03/03 04:09:45;;;;;;;1999.90;999.90;;;1.90;99.90;;;;;;5074189;28;20174;-75
2022/03/03 04:12:11;;;;;;;1999.90;999.90;;;1.90;99.90;;;;;;5074002;28;20523;-75
2022/03/03 04:14:37;;;;;;;1999.90;999.90;;;1.80;99.90;;;;;;5073922;28;20174;-75
2022/03/03 04:17:03;;;;;;;1999.90;999.90;;;1.70;99.90;;;;;;5073942;28;20397;-75
2022/03/03 04:19:28;;;;;;;1999.90;999.90;;;1.70;99.90;;;;;;5074020;28;20494;-75
2022/03/03 04:21:54;;;;;;;1999.90;999.90;;;1.70;99.90;;;;;;5072597;28;20202;-75
2022/03/03 04:24:20;;;;;;;1999.90;999.90;;;1.70;99.90;;;;;;5073661;28;20250;-75
2022/03/03 04:26:45;;;;;;;1999.90;999.90;;;1.70;99.90;;;;;;5073879;28;20167;-75
2022/03/03 04:29:11;;;;;;;1999.90;999.90;;;1.70;99.90;;;;;;5073828;28;20167;-75
2022/03/03 04:31:37;;;;;;;1999.90;999.90;;;1.70;99.90;;;;;;5073693;28;20278;-75
2022/03/03 04:34:03;;;;;;;1999.90;999.90;;;1.70;99.90;;;;;;5073264;28;20182;-74
2022/03/03 04:36:28;;;;;;;1999.90;999.90;;;1.70;99.90;;;;;;5074006;28;20232;-75
2022/03/03 04:38:54;;;;;;;1999.90;999.90;;;1.70;99.90;;;;;;5075176;28;20581;-76
2022/03/03 04:41:20;;;;;;;1999.90;999.90;;;1.70;99.90;;;;;;5075117;28;20213;-76
2022/03/03 04:43:45;;;;;;;1999.90;999.90;;;1.80;99.90;;;;;;5074579;28;20190;-75
2022/03/03 04:46:11;;;;;;;1999.90;999.90;;;1.80;99.90;;;;;;5073246;28;20170;-75
2022/03/03 04:48:37;;;;;;;1999.90;999.90;;;1.70;99.90;;;;;;5073246;28;20178;-74
2022/03/03 04:51:03;;;;;;;1999.90;999.90;;;1.70;99.90;;;;;;5073302;28;20170;-75
2022/03/03 04:53:28;;;;;;;1999.90;999.90;;;1.60;99.90;;;;;;5073325;28;20194;-75
2022/03/03 04:55:55;;;;;;;1999.90;999.90;;;1.50;99.90;;;;;;5072960;28;20417;-75
2022/03/03 04:58:21;;;;;;;1999.90;999.90;;;1.40;99.90;;;;;;5073222;28;20402;-75
2022/03/03 05:00:47;;;;;;;1999.90;999.90;;;1.40;99.90;;;;;;5073174;28;20687;-74
2022/03/03 05:03:13;;;;;;;1999.90;999.90;;;1.50;99.90;;;;;;5073060;28;20675;-74
2022/03/03 05:05:38;;;;;;;1999.90;999.90;;;1.40;99.90;;;;;;5072848;28;20189;-74
2022/03/03 05:08:04;;;;;;;1999.90;999.90;;;1.40;99.90;;;;;;5072974;28;20789;-75
2022/03/03 05:10:30;;;;;;;1999.90;999.90;;;1.50;99.90;;;;;;5072993;28;20183;-75
2022/03/03 05:12:57;;;;;;;1999.90;999.90;;;1.40;99.90;;;;;;5072757;28;20453;-74
2022/03/03 05:15:23;;;;;;;1999.90;999.90;;;1.50;99.90;;;;;;5072586;28;20167;-74
2022/03/03 05:17:49;;;;;;;1999.90;999.90;;;1.70;99.90;;;;;;5073242;28;20175;-74
2022/03/03 05:20:14;;;;;;;1999.90;999.90;;;1.50;99.90;;;;;;5073317;28;20170;-74
2022/03/03 05:22:41;;;;;;;1999.90;999.90;;;1.50;99.90;;;;;;5071723;28;20191;-74
2022/03/03 05:25:07;;;;;;;1999.90;999.90;;;1.60;99.90;;;;;;5072486;28;20220;-75
2022/03/03 05:27:33;;;;;;;1999.90;999.90;;;1.60;99.90;;;;;;5072691;28;20175;-75
2022/03/03 05:29:59;;;;;;;1999.90;999.90;;;1.50;99.90;;;;;;5072562;28;20219;-75
2022/03/03 05:32:25;;;;;;;1999.90;999.90;;;1.40;99.90;;;;;;5072352;28;20733;-75
2022/03/03 05:34:51;;;;;;;1999.90;999.90;;;1.30;99.90;;;;;;5070972;28;20182;-75
2022/03/03 05:37:24;;;;;;;1999.90;999.90;;;1.30;99.90;;;;;;5072449;28;20159;-75
2022/03/03 05:39:51;;;;;;;1999.90;999.90;;;1.30;99.90;;;;;;5072462;28;20170;-75
2022/03/03 05:42:19;;;;;;;1999.90;999.90;;;1.20;99.90;;;;;;5072307;28;20320;-75
2022/03/03 05:44:46;;;;;;;1999.90;999.90;;;1.20;99.90;;;;;;5072025;28;20167;-75
2022/03/03 05:47:12;;;;;;;1999.90;999.90;;;1.20;99.90;;;;;;5072356;28;20640;-75
2022/03/03 05:49:40;;;;;;;1999.90;999.90;;;1.30;99.90;;;;;;5072474;28;20194;-75
2022/03/03 05:52:07;;;;;;;1999.90;999.90;;;1.20;99.90;;;;;;5073918;28;20214;-75
2022/03/03 05:54:32;;;;;;;1999.90;999.90;;;1.10;99.90;;;;;;5073836;28;20221;-75
2022/03/03 05:57:00;;;;;;;1999.90;999.90;;;1.10;99.90;;;;;;5073855;28;20171;-75
2022/03/03 05:59:31;;;;;;;1999.90;999.90;;;1.10;99.90;;;;;;5071778;28;20211;-76
2022/03/03 06:01:58;;;;;;;1999.90;999.90;;;1.10;99.90;;;;;;5073961;28;20178;-75
2022/03/03 06:04:28;;;;;;;1999.90;999.90;;;1.10;99.90;;;;;;5074399;28;20163;-76
2022/03/03 06:07:15;;;;;;;1999.90;999.90;;;1.10;99.90;;;;;;5072668;28;20197;-75
2022/03/03 06:09:42;;;;;;;1999.90;999.90;;;1.00;99.90;;;;;;5074011;28;20265;-76
2022/03/03 06:12:22;;;;;;;1999.90;999.90;;;1.10;99.90;;;;;;5073377;28;20212;-76
2022/03/03 06:14:53;;;;;;;1999.90;999.90;;;1.00;99.90;;;;;;5073995;28;20637;-75
2022/03/03 06:17:21;;;;;;;1999.90;999.90;;;1.00;99.90;;;;;;5073710;28;20178;-76
2022/03/03 06:19:49;;;;;;;1999.90;999.90;;;1.00;99.90;;;;;;5073852;28;20159;-75
2022/03/03 06:22:15;;;;;;;1999.90;999.90;;;1.00;99.90;;;;;;5073968;28;20190;-76
2022/03/03 06:24:41;;;;;;;1999.90;999.90;;;1.00;99.90;;;;;;5073968;28;20174;-75
2022/03/03 06:27:08;;;;;;;1999.90;999.90;;;1.00;99.90;;;;;;5073217;28;20171;-75
2022/03/03 06:29:34;;;;;;;1999.90;999.90;;;1.00;99.90;;;;;;5071866;28;20943;-75
2022/03/03 06:32:01;;;;;;;1999.90;999.90;;;1.00;99.90;;;;;;5071565;28;20562;-75
2022/03/03 06:34:27;;;;;;;1999.90;999.90;;;1.00;99.90;;;;;;5071490;28;20166;-77
2022/03/03 06:36:52;;;;;;;1999.90;999.90;;;1.00;99.90;;;;;;5087384;28;20175;-75
2022/03/03 06:39:18;;;;;;;1999.90;999.90;;;1.00;99.90;;;;;;5071757;28;20534;-75
2022/03/03 06:41:44;;;;;;;1999.90;999.90;;;1.00;99.90;;;;;;5071624;28;20206;-75
2022/03/03 06:44:10;;;;;;;1999.90;999.90;;;1.10;99.90;;;;;;5071437;28;20288;-75
2022/03/03 06:46:35;;;;;;;1999.90;999.90;;;1.10;99.90;;;;;;5071720;28;20544;-75
2022/03/03 06:49:01;;;;;;;1999.90;999.90;;;1.10;99.90;;;;;;5071656;28;20413;-75
2022/03/03 06:51:33;;;;;;;1999.90;999.90;;;1.10;99.90;;;;;;5071525;28;20268;-75
2022/03/03 06:54:03;;;;;;;1999.90;999.90;;;1.20;99.90;;;;;;5071389;28;20213;-75
2022/03/03 06:56:32;;;;;;;1999.90;999.90;;;1.30;99.90;;;;;;5071618;28;20175;-75
2022/03/03 06:59:01;;;;;;;1999.90;999.90;;;1.40;99.90;;;;;;5071602;28;20164;-75
2022/03/03 07:01:29;;;;;;;1999.90;999.90;;;1.40;99.90;;;;;;5071558;28;20228;-75
2022/03/03 07:03:56;;;;;;;1999.90;999.90;;;1.50;99.90;;;;;;5071365;28;20183;-75
2022/03/03 07:06:22;;;;;;;1999.90;999.90;;;1.50;99.90;;;;;;5071235;28;20174;-75
2022/03/03 07:08:53;;;;;;;1999.90;999.90;;;1.60;99.90;;;;;;5071481;28;20171;-75
2022/03/03 07:11:19;;;;;;;1999.90;999.90;;;1.60;99.90;;;;;;5073196;28;20194;-75
2022/03/03 07:13:47;;;;;;;1999.90;999.90;;;1.70;99.90;;;;;;5075140;28;20206;-75
2022/03/03 07:16:36;;;;;;;1999.90;999.90;;;1.80;99.90;;;;;;5074916;28;20202;-75
2022/03/03 07:19:04;;;;;;;1999.90;999.90;;;1.80;99.90;;;;;;5075140;28;20506;-75
2022/03/03 07:21:39;;;;;;;1999.90;999.90;;;1.90;99.90;;;;;;5075066;28;20200;-75
2022/03/03 07:24:16;;;;;;;1999.90;999.90;;;1.90;99.90;;;;;;5090269;28;20171;-75
2022/03/03 07:26:46;;;;;;;1999.90;999.90;;;1.90;99.90;;;;;;5075229;28;20668;-75
2022/03/03 07:29:16;;;;;;;1999.90;999.90;;;1.90;99.90;;;;;;5074958;28;20178;-75
2022/03/03 07:31:54;;;;;;;1999.90;999.90;;;2.00;99.90;;;;;;5074669;28;20191;-75
2022/03/03 07:34:50;;;;;;;1999.90;999.90;;;2.00;99.90;;;;;;5075136;28;20174;-75
2022/03/03 07:37:23;;;;;;;1999.90;999.90;;;2.00;99.90;;;;;;5071978;28;20590;-75
2022/03/03 07:39:48;;;;;;;1999.90;999.90;;;2.10;99.90;;;;;;5077671;28;20179;-76
2022/03/03 07:42:19;;;;;;;1999.90;999.90;;;2.10;99.90;;;;;;5077350;28;20194;-76
2022/03/03 07:44:46;;;;;;;1999.90;999.90;;;2.20;99.90;;;;;;5077603;28;20198;-76
2022/03/03 07:47:12;;;;;;;1999.90;999.90;;;2.20;99.90;;;;;;5077316;28;20182;-76
2022/03/03 07:49:40;;;;;;;1999.90;999.90;;;2.20;99.90;;;;;;5076808;28;20179;-75
2022/03/03 07:52:06;;;;;;;1999.90;999.90;;;2.30;99.90;;;;;;5076388;28;20195;-76
2022/03/03 07:54:33;;;;;;;1999.90;999.90;;;2.50;99.90;;;;;;5076448;28;20641;-76
2022/03/03 07:57:01;;;;;;;1999.90;999.90;;;2.60;99.90;;;;;;5076958;28;20175;-76
2022/03/03 07:59:32;;;;;;;1999.90;999.90;;;2.70;99.90;;;;;;5076488;28;20162;-76
2022/03/03 08:02:01;;;;;;;1999.90;999.90;;;2.80;99.90;;;;;;5076503;28;20198;-75
2022/03/03 08:04:29;;;;;;;1999.90;999.90;;;2.90;99.90;;;;;;5075805;28;20257;-76
2022/03/03 08:07:06;;;;;;;1999.90;999.90;;;3.00;99.90;;;;;;5076112;28;20194;-76
2022/03/03 08:09:36;;;;;;;1999.90;999.90;;;3.10;99.90;;;;;;5075779;28;20536;-75
2022/03/03 08:12:05;;;;;;;1999.90;999.90;;;3.20;99.90;;;;;;5075471;28;20198;-76
2022/03/03 08:14:31;;;;;;;1999.90;999.90;;;3.30;99.90;;;;;;5073987;28;20413;-76
2022/03/03 08:16:57;;;;;;;1999.90;999.90;;;3.40;99.90;;;;;;5075371;28;20163;-76
2022/03/03 08:19:23;;;;;;;1999.90;999.90;;;3.50;99.90;;;;;;5075556;28;20171;-75
2022/03/03 08:21:49;;;;;;;1999.90;999.90;;;3.60;99.90;;;;;;5073732;28;20182;-75
2022/03/03 08:24:15;;;;;;;1999.90;999.90;;;3.70;99.90;;;;;;5074086;28;20405;-76
2022/03/03 08:26:43;;;;;;;1999.90;999.90;;;3.80;99.90;;;;;;5075187;28;20254;-75
2022/03/03 08:29:09;;;;;;;1999.90;999.90;;;3.90;99.90;;;;;;5074986;28;20281;-76
2022/03/03 08:31:38;;;;;;;1999.90;999.90;;;4.00;99.90;;;;;;5075133;28;20495;-76
2022/03/03 08:34:12;;;;;;;1999.90;999.90;;;4.10;99.90;;;;;;5073435;28;20414;-75
2022/03/03 08:36:54;;;;;;;1999.90;999.90;;;4.20;99.90;;;;;;5074964;28;20397;-75
2022/03/03 08:39:26;;;;;;;1999.90;999.90;;;4.30;99.90;;;;;;5075303;28;20770;-76
2022/03/03 08:42:00;;;;;;;1999.90;999.90;;;4.40;99.90;;;;;;5075035;28;20419;-75
2022/03/03 08:44:32;;;;;;;1999.90;999.90;;;4.50;99.90;;;;;;5074793;28;20762;-74
2022/03/03 08:46:58;;;;;;;1999.90;999.90;;;4.70;99.90;;;;;;5075015;28;20389;-75
2022/03/03 08:49:30;;;;;;;1999.90;999.90;;;4.70;99.90;;;;;;5074071;28;20405;-75
2022/03/03 08:51:57;;;;;;;1999.90;999.90;;;4.90;99.90;;;;;;5073777;28;20456;-76
2022/03/03 08:54:23;;;;;;;1999.90;999.90;;;5.00;99.90;;;;;;5074604;28;20420;-74
2022/03/03 08:56:48;;;;;;;1999.90;999.90;;;5.00;99.90;;;;;;5076151;28;20406;-76
2022/03/03 08:59:14;;;;;;;1999.90;999.90;;;5.20;99.90;;;;;;5076059;28;20408;-76
2022/03/03 09:01:40;;;;;;;1999.90;999.90;;;5.30;99.90;;;;;;5075417;28;20417;-75
2022/03/03 09:04:06;;;;;;;1999.90;999.90;;;5.40;99.90;;;;;;5073514;28;20746;-75
2022/03/03 09:06:33;;;;;;;1999.90;999.90;;;5.50;99.90;;;;;;5072210;28;20259;-75
2022/03/03 09:08:58;;;;;;;1999.90;999.90;;;5.60;99.90;;;;;;5072612;28;20413;-75
2022/03/03 09:11:24;;;;;;;1999.90;999.90;;;5.70;99.90;;;;;;5071940;28;20413;-75
2022/03/03 09:13:50;;;;;;;1999.90;999.90;;;5.80;99.90;;;;;;5071921;28;20544;-75
2022/03/03 09:16:17;;;;;;;1999.90;999.90;;;5.90;99.90;;;;;;5072277;28;20420;-75
2022/03/03 09:18:45;;;;;;;1999.90;999.90;;;5.90;99.90;;;;;;5072562;28;20165;-75
2022/03/03 09:21:11;;;;;;;1999.90;999.90;;;6.00;99.90;;;;;;5071551;28;20860;-75
2022/03/03 09:23:37;;;;;;;1999.90;999.90;;;6.00;99.90;;;;;;5070942;28;20417;-75
2022/03/03 09:26:03;;;;;;;1999.90;999.90;;;6.20;99.90;;;;;;5072109;28;20916;-75
2022/03/03 09:28:28;;;;;;;1999.90;999.90;;;6.30;99.90;;;;;;5071851;28;20224;-75
2022/03/03 09:30:56;;;;;;;1999.90;999.90;;;6.40;99.90;;;;;;5072162;28;20842;-75
2022/03/03 09:33:23;;;;;;;1999.90;999.90;;;6.40;99.90;;;;;;5071752;28;20195;-75
2022/03/03 09:35:49;;;;;;;1999.90;999.90;;;6.60;99.90;;;;;;5070673;28;20406;-75
2022/03/03 09:38:15;;;;;;;1999.90;999.90;;;6.70;99.90;;;;;;5072226;28;20398;-75
2022/03/03 09:40:42;;;;;;;1999.90;999.90;;;6.70;99.90;;;;;;5071940;28;20408;-75
2022/03/03 09:43:08;;;;;;;1999.90;999.90;;;6.80;99.90;;;;;;5071549;28;20889;-75
2022/03/03 09:45:36;;;;;;;1999.90;999.90;;;6.90;99.90;;;;;;5072036;28;20907;-75
2022/03/03 09:48:07;;;;;;;1999.90;999.90;;;7.00;99.90;;;;;;5072078;28;20405;-75
2022/03/03 09:50:37;;;;;;;1999.90;999.90;;;7.20;99.90;;;;;;5071298;28;20402;-75
2022/03/03 09:53:09;;;;;;;1999.90;999.90;;;7.20;99.90;;;;;;5071823;28;20503;-75
2022/03/03 09:55:37;;;;;;;1999.90;999.90;;;7.30;99.90;;;;;;5071534;28;20926;-75
2022/03/03 09:58:03;;;;;;;1999.90;999.90;;;7.40;99.90;;;;;;5071486;28;20470;-75
2022/03/03 10:00:33;;;;;;;1999.90;999.90;;;7.60;99.90;;;;;;5071673;28;20921;-75
2022/03/03 10:03:09;;;;;;;1999.90;999.90;;;7.70;99.90;;;;;;5071571;28;20840;-75
2022/03/03 10:05:36;;;;;;;1999.90;999.90;;;7.80;99.90;;;;;;5071019;28;20930;-75
2022/03/03 10:08:05;;;;;;;1999.90;999.90;;;7.90;99.90;;;;;;5071756;28;20432;-75
2022/03/03 10:10:31;;;;;;;1999.90;999.90;;;7.90;99.90;;;;;;5070144;28;20406;-75
2022/03/03 10:12:57;;;;;;;1999.90;999.90;;;8.10;99.90;;;;;;5071012;28;20457;-75
2022/03/03 10:15:30;;;;;;;1999.90;999.90;;;8.20;99.90;;;;;;5071297;28;20399;-75
2022/03/03 10:18:01;;;;;;;1999.90;999.90;;;8.20;99.90;;;;;;5071640;28;20491;-75
2022/03/03 10:20:28;;;;;;;1999.90;999.90;;;8.30;99.90;;;;;;5071012;28;20405;-75
2022/03/03 10:22:57;;;;;;;1999.90;999.90;;;8.40;99.90;;;;;;5071441;28;20434;-75
2022/03/03 10:25:32;;;;;;;1999.90;999.90;;;8.50;99.90;;;;;;5071171;28;20411;-75
2022/03/03 10:28:14;;;;;;;1999.90;999.90;;;8.60;99.90;;;;;;5071041;28;20417;-75
2022/03/03 10:30:49;;;;;;;1999.90;999.90;;;8.70;99.90;;;;;;5071338;28;20410;-75
2022/03/03 10:33:16;;;;;;;1999.90;999.90;;;8.80;99.90;;;;;;5070418;28;20595;-75
2022/03/03 10:35:41;;;;;;;1999.90;999.90;;;8.90;99.90;;;;;;5071229;28;20489;-75
2022/03/03 10:38:07;;;;;;;1999.90;999.90;;;9.00;99.90;;;;;;5071318;28;20502;-75
2022/03/03 10:40:37;;;;;;;1999.90;999.90;;;9.20;99.90;;;;;;5070683;28;20181;-75
2022/03/03 10:43:04;;;;;;;1999.90;999.90;;;9.30;99.90;;;;;;5071198;28;20192;-75
2022/03/03 10:45:30;;;;;;;1999.90;999.90;;;9.40;99.90;;;;;;5069275;28;20519;-75
2022/03/03 10:48:01;;;;;;;1999.90;999.90;;;9.60;99.90;;;;;;5075094;28;20502;-75
2022/03/03 10:50:47;;;;;;;1999.90;999.90;;;9.70;99.90;;;;;;5075379;28;20340;-76
2022/03/03 10:53:42;;;;;;;1999.90;999.90;;;9.90;99.90;;;;;;5073498;28;20478;-78
2022/03/03 10:56:30;;;;;;;1999.90;999.90;;;10.10;99.90;;;;;;5071918;28;20443;-77
2022/03/03 10:58:58;;;;;;;1999.90;999.90;;;10.30;99.90;;;;;;5075005;28;20418;-77
2022/03/03 11:01:27;;;;;;;1999.90;999.90;;;10.40;99.90;;;;;;5074766;28;20775;-77
2022/03/03 11:03:53;;;;;;;1999.90;999.90;;;10.50;99.90;;;;;;5074502;28;20505;-76
2022/03/03 11:06:24;;;;;;;1999.90;999.90;;;10.60;99.70;;;;;;5074572;28;20404;-77
2022/03/03 11:08:51;;;;;;;1999.90;999.90;;;10.70;99.90;;;;;;5075166;28;20428;-77
2022/03/03 11:11:18;;;;;;;1999.90;999.90;;;10.80;98.80;;;;;;5074704;28;20408;-77
2022/03/03 11:13:47;;;;;;;1999.90;999.90;;;10.90;97.20;;;;;;5072722;28;20968;-76
2022/03/03 11:16:15;;;;;;;1999.90;999.90;;;11.10;97.50;;;;;;5074509;28;20461;-76
2022/03/03 11:18:41;;;;;;;1999.90;999.90;;;11.10;93.80;;;;;;5074141;28;20435;-76
2022/03/03 11:21:08;;;;;;;1999.90;999.90;;;11.00;94.00;;;;;;5074535;28;20408;-76
2022/03/03 11:24:08;;;;;;;1999.90;999.90;;;11.10;94.90;;;;;;5074458;28;20425;-76
2022/03/03 11:26:41;;;;;;;1999.90;999.90;;;11.30;95.20;;;;;;5061400;28;20501;-76
2022/03/03 11:29:16;;;;;;;1999.90;999.90;;;11.50;92.70;;;;;;5074661;28;20401;-76
2022/03/03 11:32:06;;;;;;;1999.90;999.90;;;11.60;91.40;;;;;;5073867;28;20447;-75
2022/03/03 11:34:32;;;;;;;1999.90;999.90;;;11.70;91.50;;;;;;5073415;28;20437;-76
2022/03/03 11:37:09;;;;;;;1999.90;999.90;;;11.80;90.50;;;;;;5074435;28;20918;-76
2022/03/03 11:39:47;;;;;;;1999.90;999.90;;;12.00;91.00;;;;;;5089974;28;20413;-76
2022/03/03 11:42:28;;;;;;;1999.90;999.90;;;12.00;91.30;;;;;;5074005;28;20574;-76
2022/03/03 11:44:58;;;;;;;1999.90;999.90;;;12.20;87.50;;;;;;5073938;28;20405;-76
2022/03/03 11:47:32;;;;;;;1999.90;999.90;;;12.60;86.20;;;;;;5073879;28;20397;-76
2022/03/03 11:50:00;;;;;;;1999.90;999.90;;;13.20;85.90;;;;;;5074180;28;20406;-76
2022/03/03 11:52:25;;;;;;;1999.90;999.90;;;14.10;76.00;;;;;;5073921;28;20463;-76
2022/03/03 11:55:18;;;;;;;1999.90;999.90;;;15.10;67.80;;;;;;5073407;28;20420;-76
2022/03/03 11:57:43;;;;;;;1999.90;999.90;;;16.10;54.00;;;;;;5072827;28;20171;-76
2022/03/03 12:00:11;;;;;;;1999.90;999.90;;;16.90;41.50;;;;;;5073845;28;20406;-76
2022/03/03 12:02:37;;;;;;;1999.90;999.90;;;17.60;36.00;;;;;;5073319;28;20184;-76
2022/03/03 12:05:27;;;;;;;1999.90;999.90;;;18.30;31.30;;;;;;5073733;28;20405;-76
2022/03/03 12:08:04;;;;;;;1999.90;999.90;;;19.20;27.40;;;;;;5073811;28;20764;-76
2022/03/03 12:10:31;;;;;;;1999.90;999.90;;;19.70;24.60;;;;;;5073185;28;20416;-76